sensor_id;sensor_type;location;lat;lon;timestamp;pressure;altitude;pressure_sealevel;temperature;humidity
71976;BME280;68326;52.124;5.424;2023-03-03T00:00:01;102542.84;;;2.56;86.99
71976;BME280;68326;52.124;5.424;2023-03-03T00:02:28;102543.66;;;2.52;87.47
71976;BME280;68326;52.124;5.424;2023-03-03T00:04:55;102544.53;;;2.51;87.98
71976;BME280;68326;52.124;5.424;2023-03-03T00:07:21;102546.25;;;2.52;88.30
71976;BME280;68326;52.124;5.424;2023-03-03T00:09:48;102547.09;;;2.53;88.14
71976;BME280;68326;52.124;5.424;2023-03-03T00:12:25;102546.25;;;2.52;88.05
71976;BME280;68326;52.124;5.424;2023-03-03T00:14:52;102544.28;;;2.28;89.17
71976;BME280;68326;52.124;5.424;2023-03-03T00:17:29;102544.25;;;2.27;88.25
71976;BME280;68326;52.124;5.424;2023-03-03T00:19:57;102543.41;;;2.28;89.00
71976;BME280;68326;52.124;5.424;2023-03-03T00:22:28;102542.44;;;2.18;89.37
71976;BME280;68326;52.124;5.424;2023-03-03T00:27:51;102549.97;;;2.02;89.54
71976;BME280;68326;52.124;5.424;2023-03-03T00:30:24;102555.94;;;2.03;90.83
71976;BME280;68326;52.124;5.424;2023-03-03T00:32:52;102560.22;;;2.02;90.08
71976;BME280;68326;52.124;5.424;2023-03-03T00:35:31;102566.09;;;1.95;90.85
71976;BME280;68326;52.124;5.424;2023-03-03T00:38:10;102569.41;;;1.87;91.22
71976;BME280;68326;52.124;5.424;2023-03-03T00:40:39;102570.22;;;1.82;91.34
71976;BME280;68326;52.124;5.424;2023-03-03T00:43:24;102567.66;;;1.81;91.58
71976;BME280;68326;52.124;5.424;2023-03-03T00:45:52;102569.31;;;1.77;91.50
71976;BME280;68326;52.124;5.424;2023-03-03T00:48:26;102571.91;;;1.80;91.22
71976;BME280;68326;52.124;5.424;2023-03-03T00:50:58;102564.09;;;1.73;91.64
71976;BME280;68326;52.124;5.424;2023-03-03T00:53:27;102569.13;;;1.65;91.52
71976;BME280;68326;52.124;5.424;2023-03-03T00:55:54;102574.16;;;1.57;92.48
71976;BME280;68326;52.124;5.424;2023-03-03T00:58:22;102572.47;;;1.61;93.00
71976;BME280;68326;52.124;5.424;2023-03-03T01:00:51;102574.25;;;1.65;92.62
71976;BME280;68326;52.124;5.424;2023-03-03T01:03:20;102575.22;;;1.73;92.90
71976;BME280;68326;52.124;5.424;2023-03-03T01:05:48;102571.00;;;1.77;92.63
71976;BME280;68326;52.124;5.424;2023-03-03T01:08:15;102575.34;;;1.82;93.01
71976;BME280;68326;52.124;5.424;2023-03-03T01:10:47;102573.66;;;1.84;93.08
71976;BME280;68326;52.124;5.424;2023-03-03T01:13:19;102576.16;;;1.78;92.78
71976;BME280;68326;52.124;5.424;2023-03-03T01:15:45;102574.47;;;1.79;92.63
71976;BME280;68326;52.124;5.424;2023-03-03T01:18:12;102581.19;;;1.71;92.21
71976;BME280;68326;52.124;5.424;2023-03-03T01:20:40;102580.34;;;1.70;92.78
71976;BME280;68326;52.124;5.424;2023-03-03T01:23:07;102577.03;;;1.80;92.37
71976;BME280;68326;52.124;5.424;2023-03-03T01:25:33;102571.13;;;1.86;92.96
71976;BME280;68326;52.124;5.424;2023-03-03T01:28:00;102572.88;;;1.87;92.16
71976;BME280;68326;52.124;5.424;2023-03-03T01:30:27;102570.25;;;1.84;91.92
71976;BME280;68326;52.124;5.424;2023-03-03T01:32:53;102577.94;;;1.84;93.38
71976;BME280;68326;52.124;5.424;2023-03-03T01:35:20;102576.19;;;1.81;92.42
71976;BME280;68326;52.124;5.424;2023-03-03T01:37:47;102572.78;;;1.81;92.17
71976;BME280;68326;52.124;5.424;2023-03-03T01:40:18;102575.28;;;1.78;91.86
71976;BME280;68326;52.124;5.424;2023-03-03T01:42:44;102579.81;;;1.94;92.08
71976;BME280;68326;52.124;5.424;2023-03-03T01:45:28;102579.97;;;2.07;91.88
71976;BME280;68326;52.124;5.424;2023-03-03T01:48:07;102578.38;;;2.18;91.50
71976;BME280;68326;52.124;5.424;2023-03-03T01:50:48;102580.94;;;2.16;90.99
71976;BME280;68326;52.124;5.424;2023-03-03T01:53:22;102572.31;;;2.11;90.93
71976;BME280;68326;52.124;5.424;2023-03-03T01:55:53;102571.47;;;2.12;90.60
71976;BME280;68326;52.124;5.424;2023-03-03T01:58:23;102580.94;;;2.16;91.54
71976;BME280;68326;52.124;5.424;2023-03-03T02:00:55;102580.94;;;2.16;91.10
71976;BME280;68326;52.124;5.424;2023-03-03T02:03:23;102579.19;;;2.14;90.78
71976;BME280;68326;52.124;5.424;2023-03-03T02:05:51;102580.06;;;2.16;91.59
71976;BME280;68326;52.124;5.424;2023-03-03T02:08:24;102583.53;;;2.18;90.61
71976;BME280;68326;52.124;5.424;2023-03-03T02:10:52;102581.84;;;2.20;90.84
71976;BME280;68326;52.124;5.424;2023-03-03T02:13:20;102571.56;;;2.20;90.66
71976;BME280;68326;52.124;5.424;2023-03-03T02:15:46;102575.84;;;2.19;91.12
71976;BME280;68326;52.124;5.424;2023-03-03T02:18:15;102575.00;;;2.20;91.11
71976;BME280;68326;52.124;5.424;2023-03-03T02:21:14;102579.25;;;2.17;91.06
71976;BME280;68326;52.124;5.424;2023-03-03T02:24:06;102577.47;;;2.11;89.83
71976;BME280;68326;52.124;5.424;2023-03-03T02:26:36;102577.47;;;2.11;91.14
71976;BME280;68326;52.124;5.424;2023-03-03T02:29:09;102578.34;;;2.13;90.28
71976;BME280;68326;52.124;5.424;2023-03-03T02:31:35;102581.66;;;2.06;90.35
71976;BME280;68326;52.124;5.424;2023-03-03T02:34:04;102575.66;;;2.04;91.11
71976;BME280;68326;52.124;5.424;2023-03-03T02:36:34;102583.38;;;2.06;90.66
71976;BME280;68326;52.124;5.424;2023-03-03T02:41:57;102579.09;;;2.08;90.44
71976;BME280;68326;52.124;5.424;2023-03-03T02:44:29;102576.38;;;1.95;90.33
71976;BME280;68326;52.124;5.424;2023-03-03T02:46:56;102572.03;;;1.91;89.65
71976;BME280;68326;52.124;5.424;2023-03-03T02:49:25;102574.59;;;1.91;89.22
71976;BME280;68326;52.124;5.424;2023-03-03T02:51:52;102579.75;;;1.91;90.17
71976;BME280;68326;52.124;5.424;2023-03-03T02:54:21;102578.91;;;1.92;90.62
71976;BME280;68326;52.124;5.424;2023-03-03T02:56:48;102574.63;;;1.90;89.61
71976;BME280;68326;52.124;5.424;2023-03-03T02:59:15;102585.72;;;1.90;89.78
71976;BME280;68326;52.124;5.424;2023-03-03T03:01:43;102581.50;;;1.95;90.39
71976;BME280;68326;52.124;5.424;2023-03-03T03:04:12;102583.19;;;1.93;90.39
71976;BME280;68326;52.124;5.424;2023-03-03T03:06:40;102579.81;;;1.94;89.19
71976;BME280;68326;52.124;5.424;2023-03-03T03:09:08;102582.38;;;1.94;89.75
71976;BME280;68326;52.124;5.424;2023-03-03T03:11:35;102586.59;;;1.89;90.18
71976;BME280;68326;52.124;5.424;2023-03-03T03:14:03;102584.72;;;1.79;90.01
71976;BME280;68326;52.124;5.424;2023-03-03T03:16:30;102584.66;;;1.76;91.04
71976;BME280;68326;52.124;5.424;2023-03-03T03:19:00;102583.03;;;1.79;91.03
71976;BME280;68326;52.124;5.424;2023-03-03T03:21:28;102577.06;;;1.82;90.96
71976;BME280;68326;52.124;5.424;2023-03-03T03:23:55;102577.06;;;1.82;91.26
71976;BME280;68326;52.124;5.424;2023-03-03T03:26:21;102579.66;;;1.83;90.96
71976;BME280;68326;52.124;5.424;2023-03-03T03:28:49;102571.03;;;1.80;90.65
71976;BME280;68326;52.124;5.424;2023-03-03T03:31:16;102578.81;;;1.84;91.30
71976;BME280;68326;52.124;5.424;2023-03-03T03:33:43;102579.75;;;1.90;91.45
71976;BME280;68326;52.124;5.424;2023-03-03T03:36:10;102574.66;;;1.94;90.90
71976;BME280;68326;52.124;5.424;2023-03-03T03:38:37;102578.94;;;1.95;90.75
71976;BME280;68326;52.124;5.424;2023-03-03T03:41:05;102581.53;;;1.97;91.01
71976;BME280;68326;52.124;5.424;2023-03-03T03:43:32;102585.88;;;2.01;91.40
71976;BME280;68326;52.124;5.424;2023-03-03T03:45:58;102581.63;;;2.03;90.60
71976;BME280;68326;52.124;5.424;2023-03-03T03:48:25;102591.09;;;2.07;91.44
71976;BME280;68326;52.124;5.424;2023-03-03T03:50:52;102583.38;;;2.07;90.82
71976;BME280;68326;52.124;5.424;2023-03-03T03:53:18;102589.38;;;2.08;90.98
71976;BME280;68326;52.124;5.424;2023-03-03T03:55:45;102592.81;;;2.07;91.64
71976;BME280;68326;52.124;5.424;2023-03-03T03:58:16;102593.66;;;2.07;90.56
71976;BME280;68326;52.124;5.424;2023-03-03T04:00:43;102589.34;;;2.04;91.25
71976;BME280;68326;52.124;5.424;2023-03-03T04:03:10;102598.78;;;2.07;90.59
71976;BME280;68326;52.124;5.424;2023-03-03T04:05:39;102596.28;;;2.12;91.15
71976;BME280;68326;52.124;5.424;2023-03-03T04:08:06;102598.84;;;2.12;90.86
71976;BME280;68326;52.124;5.424;2023-03-03T04:10:33;102602.25;;;2.09;91.01
71976;BME280;68326;52.124;5.424;2023-03-03T04:12:59;102599.72;;;2.12;91.08
71976;BME280;68326;52.124;5.424;2023-03-03T04:15:26;102602.34;;;2.15;91.55
71976;BME280;68326;52.124;5.424;2023-03-03T04:17:52;102597.19;;;2.15;91.58
71976;BME280;68326;52.124;5.424;2023-03-03T04:20:19;102600.63;;;2.16;91.27
71976;BME280;68326;52.124;5.424;2023-03-03T04:22:45;102591.16;;;2.12;91.06
71976;BME280;68326;52.124;5.424;2023-03-03T04:25:14;102594.53;;;2.09;91.14
71976;BME280;68326;52.124;5.424;2023-03-03T04:27:42;102599.69;;;2.09;91.32
71976;BME280;68326;52.124;5.424;2023-03-03T04:30:09;102599.59;;;2.03;91.27
71976;BME280;68326;52.124;5.424;2023-03-03T04:32:36;102597.81;;;1.96;91.11
71976;BME280;68326;52.124;5.424;2023-03-03T04:35:03;102595.22;;;1.97;91.91
71976;BME280;68326;52.124;5.424;2023-03-03T04:37:34;102592.81;;;2.08;91.14
71976;BME280;68326;52.124;5.424;2023-03-03T04:40:00;102600.59;;;2.13;91.89
71976;BME280;68326;52.124;5.424;2023-03-03T04:42:27;102601.47;;;2.16;91.82
71976;BME280;68326;52.124;5.424;2023-03-03T04:44:54;102592.16;;;2.21;91.84
71976;BME280;68326;52.124;5.424;2023-03-03T04:47:20;102600.72;;;2.23;91.53
71976;BME280;68326;52.124;5.424;2023-03-03T04:49:47;102604.06;;;2.18;90.98
71976;BME280;68326;52.124;5.424;2023-03-03T04:52:13;102604.00;;;2.13;91.64
71976;BME280;68326;52.124;5.424;2023-03-03T04:54:39;102607.44;;;2.14;91.68
71976;BME280;68326;52.124;5.424;2023-03-03T04:57:06;102606.59;;;2.16;92.14
71976;BME280;68326;52.124;5.424;2023-03-03T04:59:34;102603.16;;;2.14;91.89
71976;BME280;68326;52.124;5.424;2023-03-03T05:02:01;102608.34;;;2.17;91.99
71976;BME280;68326;52.124;5.424;2023-03-03T05:04:30;102604.03;;;2.16;92.19
71976;BME280;68326;52.124;5.424;2023-03-03T05:06:56;102604.91;;;2.15;92.61
71976;BME280;68326;52.124;5.424;2023-03-03T05:09:23;102586.84;;;2.09;92.91
71976;BME280;68326;52.124;5.424;2023-03-03T05:11:49;102598.00;;;2.11;92.58
71976;BME280;68326;52.124;5.424;2023-03-03T05:14:17;102588.50;;;2.06;93.18
71976;BME280;68326;52.124;5.424;2023-03-03T05:16:43;102592.66;;;1.97;92.73
71976;BME280;68326;52.124;5.424;2023-03-03T05:19:10;102596.16;;;2.01;93.59
71976;BME280;68326;52.124;5.424;2023-03-03T05:21:37;102595.38;;;2.08;93.14
71976;BME280;68326;52.124;5.424;2023-03-03T05:24:12;102600.50;;;2.08;93.32
71976;BME280;68326;52.124;5.424;2023-03-03T05:26:39;102597.16;;;2.11;93.95
71976;BME280;68326;52.124;5.424;2023-03-03T05:29:06;102599.72;;;2.12;94.15
71976;BME280;68326;52.124;5.424;2023-03-03T05:31:33;102597.22;;;2.17;94.28
71976;BME280;68326;52.124;5.424;2023-03-03T05:34:00;102602.41;;;2.21;94.34
71976;BME280;68326;52.124;5.424;2023-03-03T05:36:27;102596.41;;;2.22;94.26
71976;BME280;68326;52.124;5.424;2023-03-03T05:38:53;102595.50;;;2.17;94.55
71976;BME280;68326;52.124;5.424;2023-03-03T05:41:20;102597.25;;;2.20;94.31
71976;BME280;68326;52.124;5.424;2023-03-03T05:43:47;102592.91;;;2.16;93.37
71976;BME280;68326;52.124;5.424;2023-03-03T05:46:13;102604.03;;;2.16;94.77
71976;BME280;68326;52.124;5.424;2023-03-03T05:48:40;102601.53;;;2.19;93.92
71976;BME280;68326;52.124;5.424;2023-03-03T05:51:06;102604.19;;;2.26;94.07
71976;BME280;68326;52.124;5.424;2023-03-03T05:53:33;102606.75;;;2.26;94.36
71976;BME280;68326;52.124;5.424;2023-03-03T05:55:59;102601.56;;;2.22;94.47
71976;BME280;68326;52.124;5.424;2023-03-03T05:58:26;102611.84;;;2.22;94.54
71976;BME280;68326;52.124;5.424;2023-03-03T06:00:53;102602.50;;;2.29;94.28
71976;BME280;68326;52.124;5.424;2023-03-03T06:03:19;102603.38;;;2.30;94.15
71976;BME280;68326;52.124;5.424;2023-03-03T06:05:46;102608.53;;;2.33;94.42
71976;BME280;68326;52.124;5.424;2023-03-03T06:08:13;102609.41;;;2.33;94.68
71976;BME280;68326;52.124;5.424;2023-03-03T06:10:39;102612.88;;;2.37;94.34
71976;BME280;68326;52.124;5.424;2023-03-03T06:13:06;102613.72;;;2.37;94.74
71976;BME280;68326;52.124;5.424;2023-03-03T06:15:32;102611.16;;;2.37;94.77
71976;BME280;68326;52.124;5.424;2023-03-03T06:17:59;102617.16;;;2.38;95.04
71976;BME280;68326;52.124;5.424;2023-03-03T06:20:25;102628.22;;;2.34;95.65
71976;BME280;68326;52.124;5.424;2023-03-03T06:22:52;102620.56;;;2.35;95.31
71976;BME280;68326;52.124;5.424;2023-03-03T06:25:18;102626.53;;;2.36;95.47
71976;BME280;68326;52.124;5.424;2023-03-03T06:27:45;102615.41;;;2.35;94.88
71976;BME280;68326;52.124;5.424;2023-03-03T06:30:12;102625.81;;;2.43;94.97
71976;BME280;68326;52.124;5.424;2023-03-03T06:32:39;102628.34;;;2.41;96.24
71976;BME280;68326;52.124;5.424;2023-03-03T06:35:06;102629.13;;;2.36;95.26
71976;BME280;68326;52.124;5.424;2023-03-03T06:37:32;102621.34;;;2.31;95.34
71976;BME280;68326;52.124;5.424;2023-03-03T06:39:59;102625.72;;;2.37;95.84
71976;BME280;68326;52.124;5.424;2023-03-03T06:42:25;102634.19;;;2.31;95.61
71976;BME280;68326;52.124;5.424;2023-03-03T06:44:52;102635.09;;;2.32;96.58
71976;BME280;68326;52.124;5.424;2023-03-03T06:47:19;102635.94;;;2.34;96.41
71976;BME280;68326;52.124;5.424;2023-03-03T06:49:45;102635.03;;;2.29;96.53
71976;BME280;68326;52.124;5.424;2023-03-03T06:52:15;102636.69;;;2.25;96.83
71976;BME280;68326;52.124;5.424;2023-03-03T06:54:44;102641.03;;;2.28;96.88
71976;BME280;68326;52.124;5.424;2023-03-03T06:57:26;102650.56;;;2.36;96.32
71976;BME280;68326;52.124;5.424;2023-03-03T06:59:57;102651.41;;;2.37;96.69
71976;BME280;68326;52.124;5.424;2023-03-03T07:02:25;102649.75;;;2.40;96.50
71976;BME280;68326;52.124;5.424;2023-03-03T07:04:54;102654.91;;;2.43;96.78
71976;BME280;68326;52.124;5.424;2023-03-03T07:07:23;102661.88;;;2.52;97.16
71976;BME280;68326;52.124;5.424;2023-03-03T07:09:53;102665.38;;;2.57;96.75
71976;BME280;68326;52.124;5.424;2023-03-03T07:12:29;102662.75;;;2.54;96.12
71976;BME280;68326;52.124;5.424;2023-03-03T07:15:14;102669.59;;;2.54;96.82
71976;BME280;68326;52.124;5.424;2023-03-03T07:17:44;102673.91;;;2.56;96.28
71976;BME280;68326;52.124;5.424;2023-03-03T07:20:22;102672.22;;;2.58;96.70
71976;BME280;68326;52.124;5.424;2023-03-03T07:22:49;102676.53;;;2.61;96.69
71976;BME280;68326;52.124;5.424;2023-03-03T07:25:30;102674.94;;;2.69;96.23
71976;BME280;68326;52.124;5.424;2023-03-03T07:27:59;102685.25;;;2.72;95.62
71976;BME280;68326;52.124;5.424;2023-03-03T07:30:28;102681.75;;;2.67;95.76
71976;BME280;68326;52.124;5.424;2023-03-03T07:32:57;102680.94;;;2.68;96.36
71976;BME280;68326;52.124;5.424;2023-03-03T07:35:42;102676.75;;;2.76;95.91
71976;BME280;68326;52.124;5.424;2023-03-03T07:38:43;102686.22;;;2.82;96.51
71976;BME280;68326;52.124;5.424;2023-03-03T07:41:17;102689.59;;;2.78;96.50
71976;BME280;68326;52.124;5.424;2023-03-03T07:46:35;102690.66;;;2.97;96.01
71976;BME280;68326;52.124;5.424;2023-03-03T07:49:30;102696.69;;;2.99;96.05
71976;BME280;68326;52.124;5.424;2023-03-03T07:51:59;102700.13;;;2.98;96.15
71976;BME280;68326;52.124;5.424;2023-03-03T07:54:34;102701.03;;;3.03;96.46
71976;BME280;68326;52.124;5.424;2023-03-03T07:59:36;102701.94;;;3.08;95.72
71976;BME280;68326;52.124;5.424;2023-03-03T08:02:15;102706.31;;;3.15;95.84
71976;BME280;68326;52.124;5.424;2023-03-03T08:04:49;102705.47;;;3.18;95.58
71976;BME280;68326;52.124;5.424;2023-03-03T08:07:20;102708.06;;;3.21;95.36
71976;BME280;68326;52.124;5.424;2023-03-03T08:10:00;102714.13;;;3.24;96.14
71976;BME280;68326;52.124;5.424;2023-03-03T08:12:45;102715.84;;;3.25;95.79
71976;BME280;68326;52.124;5.424;2023-03-03T08:15:20;102720.09;;;3.22;95.74
71976;BME280;68326;52.124;5.424;2023-03-03T08:17:48;102720.91;;;3.21;95.95
71976;BME280;68326;52.124;5.424;2023-03-03T08:22:54;102728.69;;;3.24;94.71
71976;BME280;68326;52.124;5.424;2023-03-03T08:25:20;102734.66;;;3.21;95.86
71976;BME280;68326;52.124;5.424;2023-03-03T08:27:47;102729.53;;;3.21;95.35
71976;BME280;68326;52.124;5.424;2023-03-03T08:30:14;102737.31;;;3.28;96.24
71976;BME280;68326;52.124;5.424;2023-03-03T08:32:40;102738.25;;;3.34;95.73
71976;BME280;68326;52.124;5.424;2023-03-03T08:35:07;102734.00;;;3.39;95.85
71976;BME280;68326;52.124;5.424;2023-03-03T08:37:34;102741.84;;;3.52;95.37
71976;BME280;68326;52.124;5.424;2023-03-03T08:40:00;102738.47;;;3.60;95.81
71976;BME280;68326;52.124;5.424;2023-03-03T08:42:26;102735.81;;;3.53;94.73
71976;BME280;68326;52.124;5.424;2023-03-03T08:44:55;102737.53;;;3.49;95.41
71976;BME280;68326;52.124;5.424;2023-03-03T08:47:21;102738.47;;;3.60;95.46
71976;BME280;68326;52.124;5.424;2023-03-03T08:49:48;102739.34;;;3.61;95.42
71976;BME280;68326;52.124;5.424;2023-03-03T08:52:14;102738.53;;;3.63;95.61
71976;BME280;68326;52.124;5.424;2023-03-03T08:54:41;102739.44;;;3.70;94.72
71976;BME280;68326;52.124;5.424;2023-03-03T08:57:07;102743.78;;;3.74;95.13
71976;BME280;68326;52.124;5.424;2023-03-03T08:59:33;102740.38;;;3.80;94.40
71976;BME280;68326;52.124;5.424;2023-03-03T09:02:05;102738.72;;;3.88;94.42
71976;BME280;68326;52.124;5.424;2023-03-03T09:04:32;102745.66;;;3.97;94.18
71976;BME280;68326;52.124;5.424;2023-03-03T09:06:58;102746.56;;;4.02;93.83
71976;BME280;68326;52.124;5.424;2023-03-03T09:09:25;102741.47;;;4.14;93.37
71976;BME280;68326;52.124;5.424;2023-03-03T09:11:54;102738.19;;;4.32;92.62
71976;BME280;68326;52.124;5.424;2023-03-03T09:14:27;102742.56;;;4.50;92.46
71976;BME280;68326;52.124;5.424;2023-03-03T09:16:54;102740.88;;;4.49;91.01
71976;BME280;68326;52.124;5.424;2023-03-03T09:19:26;102745.16;;;4.55;91.28
71976;BME280;68326;52.124;5.424;2023-03-03T09:21:55;102735.75;;;4.58;91.45
71976;BME280;68326;52.124;5.424;2023-03-03T09:26:51;102740.13;;;4.73;90.51
71976;BME280;68326;52.124;5.424;2023-03-03T09:29:24;102741.84;;;4.76;89.38
71976;BME280;68326;52.124;5.424;2023-03-03T09:31:55;102739.25;;;4.73;90.28
71976;BME280;68326;52.124;5.424;2023-03-03T09:37:33;102740.19;;;4.95;89.42
71976;BME280;68326;52.124;5.424;2023-03-03T09:39:58;102739.34;;;4.91;88.89
71976;BME280;68326;52.124;5.424;2023-03-03T09:50:15;102747.19;;;5.26;86.18
71976;BME280;68326;52.124;5.424;2023-03-03T10:06:51;102761.88;;;5.50;85.92
71976;BME280;68326;52.124;5.424;2023-03-03T10:17:41;102746.31;;;6.64;82.78
71976;BME280;68326;52.124;5.424;2023-03-03T10:20:49;102747.78;;;7.18;81.53
71976;BME280;68326;52.124;5.424;2023-03-03T10:23:51;102748.41;;;7.58;79.42
71976;BME280;68326;52.124;5.424;2023-03-03T10:27:04;102742.19;;;7.82;78.01
71976;BME280;68326;52.124;5.424;2023-03-03T10:55:39;102731.41;;;9.62;69.10
71976;BME280;68326;52.124;5.424;2023-03-03T10:58:21;102737.19;;;9.79;67.73
71976;BME280;68326;52.124;5.424;2023-03-03T11:09:16;102741.84;;;10.58;63.99
71976;BME280;68326;52.124;5.424;2023-03-03T11:11:48;102727.47;;;10.40;62.69
71976;BME280;68326;52.124;5.424;2023-03-03T11:14:27;102732.25;;;10.60;62.79
71976;BME280;68326;52.124;5.424;2023-03-03T11:24:59;102721.41;;;11.22;62.13
71976;BME280;68326;52.124;5.424;2023-03-03T11:36:15;102715.31;;;10.82;58.49
71976;BME280;68326;52.124;5.424;2023-03-03T11:43:52;102711.94;;;11.18;59.36
71976;BME280;68326;52.124;5.424;2023-03-03T11:46:26;102709.41;;;11.52;58.98
71976;BME280;68326;52.124;5.424;2023-03-03T11:49:03;102712.41;;;11.35;57.30
71976;BME280;68326;52.124;5.424;2023-03-03T11:51:47;102705.94;;;11.14;57.84
71976;BME280;68326;52.124;5.424;2023-03-03T11:54:25;102709.50;;;10.71;57.13
71976;BME280;68326;52.124;5.424;2023-03-03T11:57:07;102711.31;;;10.19;58.03
71976;BME280;68326;52.124;5.424;2023-03-03T12:11:23;102704.97;;;10.36;58.12
71976;BME280;68326;52.124;5.424;2023-03-03T12:22:18;102681.09;;;10.99;57.28
71976;BME280;68326;52.124;5.424;2023-03-03T12:33:50;102674.31;;;11.64;54.44
71976;BME280;68326;52.124;5.424;2023-03-03T12:45:10;102682.06;;;10.55;56.72
71976;BME280;68326;52.124;5.424;2023-03-03T12:47:50;102670.81;;;10.93;53.30
71976;BME280;68326;52.124;5.424;2023-03-03T13:04:10;102659.53;;;10.93;53.90
71976;BME280;68326;52.124;5.424;2023-03-03T13:06:46;102658.66;;;10.52;57.68
71976;BME280;68326;52.124;5.424;2023-03-03T13:12:03;102660.28;;;10.14;57.23
71976;BME280;68326;52.124;5.424;2023-03-03T13:17:24;102664.81;;;10.04;59.51
71976;BME280;68326;52.124;5.424;2023-03-03T13:20:01;102663.00;;;10.08;59.41
71976;BME280;68326;52.124;5.424;2023-03-03T13:25:48;102658.53;;;9.68;59.91
71976;BME280;68326;52.124;5.424;2023-03-03T13:28:17;102664.00;;;9.51;59.60
71976;BME280;68326;52.124;5.424;2023-03-03T13:30:48;102661.38;;;9.52;58.37
71976;BME280;68326;52.124;5.424;2023-03-03T13:33:26;102657.91;;;9.52;58.23
71976;BME280;68326;52.124;5.424;2023-03-03T13:36:00;102660.69;;;9.41;58.31
71976;BME280;68326;52.124;5.424;2023-03-03T13:38:30;102665.03;;;9.41;59.21
71976;BME280;68326;52.124;5.424;2023-03-03T13:43:53;102658.41;;;9.23;59.91
71976;BME280;68326;52.124;5.424;2023-03-03T13:52:00;102662.94;;;9.08;61.22
71976;BME280;68326;52.124;5.424;2023-03-03T14:00:10;102657.06;;;8.95;62.06
71976;BME280;68326;52.124;5.424;2023-03-03T14:05:50;102659.69;;;8.94;63.19
71976;BME280;68326;52.124;5.424;2023-03-03T14:11:22;102657.44;;;8.69;62.35
71976;BME280;68326;52.124;5.424;2023-03-03T14:14:00;102654.72;;;8.77;62.62
71976;BME280;68326;52.124;5.424;2023-03-03T14:16:45;102652.13;;;8.77;62.57
71976;BME280;68326;52.124;5.424;2023-03-03T14:19:27;102645.34;;;8.67;62.19
71976;BME280;68326;52.124;5.424;2023-03-03T14:24:59;102650.66;;;8.59;62.69
71976;BME280;68326;52.124;5.424;2023-03-03T14:27:39;102640.22;;;8.62;62.45
71976;BME280;68326;52.124;5.424;2023-03-03T14:35:47;102635.94;;;8.60;60.73
71976;BME280;68326;52.124;5.424;2023-03-03T14:38:18;102633.47;;;8.49;61.27
71976;BME280;68326;52.124;5.424;2023-03-03T14:40:46;102639.59;;;8.43;61.14
71976;BME280;68326;52.124;5.424;2023-03-03T14:45:45;102640.53;;;8.33;60.17
71976;BME280;68326;52.124;5.424;2023-03-03T14:48:25;102636.22;;;8.33;59.40
71976;BME280;68326;52.124;5.424;2023-03-03T14:51:14;102625.88;;;8.30;59.08
71976;BME280;68326;52.124;5.424;2023-03-03T14:53:44;102630.09;;;8.39;59.80
71976;BME280;68326;52.124;5.424;2023-03-03T14:59:23;102624.78;;;8.53;58.86
71976;BME280;68326;52.124;5.424;2023-03-03T15:04:44;102623.09;;;8.47;59.32
71976;BME280;68326;52.124;5.424;2023-03-03T15:07:40;102615.44;;;8.35;60.24
71976;BME280;68326;52.124;5.424;2023-03-03T15:10:08;102628.66;;;8.15;60.40
71976;BME280;68326;52.124;5.424;2023-03-03T15:12:36;102619.06;;;8.22;62.24
71976;BME280;68326;52.124;5.424;2023-03-03T15:25:58;102616.94;;;7.80;63.14
71976;BME280;68326;52.124;5.424;2023-03-03T15:45:52;102606.72;;;7.66;62.49
71976;BME280;68326;52.124;5.424;2023-03-03T15:51:49;102610.09;;;7.74;62.07
71976;BME280;68326;52.124;5.424;2023-03-03T15:54:51;102603.38;;;7.57;61.43
71976;BME280;68326;52.124;5.424;2023-03-03T16:00:54;102599.16;;;7.43;62.84
71976;BME280;68326;52.124;5.424;2023-03-03T16:03:30;102606.94;;;7.42;62.14
71976;BME280;68326;52.124;5.424;2023-03-03T16:06:05;102600.88;;;7.41;62.17
71976;BME280;68326;52.124;5.424;2023-03-03T16:11:43;102606.06;;;7.41;62.21
71976;BME280;68326;52.124;5.424;2023-03-03T16:14:27;102606.13;;;7.35;62.01
71976;BME280;68326;52.124;5.424;2023-03-03T16:17:06;102608.78;;;7.29;62.72
71976;BME280;68326;52.124;5.424;2023-03-03T16:19:59;102610.56;;;7.21;63.14
71976;BME280;68326;52.124;5.424;2023-03-03T16:31:34;102611.47;;;7.13;63.37
71976;BME280;68326;52.124;5.424;2023-03-03T16:39:24;102607.06;;;7.29;62.83
71976;BME280;68326;52.124;5.424;2023-03-03T16:47:48;102602.84;;;7.14;63.29
71976;BME280;68326;52.124;5.424;2023-03-03T16:53:14;102608.91;;;7.12;64.37
71976;BME280;68326;52.124;5.424;2023-03-03T16:56:09;102610.63;;;7.13;64.27
71976;BME280;68326;52.124;5.424;2023-03-03T17:05:23;102610.53;;;7.22;63.51
71976;BME280;68326;52.124;5.424;2023-03-03T17:11:10;102608.84;;;7.23;64.72
71976;BME280;68326;52.124;5.424;2023-03-03T17:16:29;102611.50;;;7.10;64.58
71976;BME280;68326;52.124;5.424;2023-03-03T17:41:10;102631.41;;;7.04;65.40
71976;BME280;68326;52.124;5.424;2023-03-03T17:43:51;102630.53;;;7.03;64.86
71976;BME280;68326;52.124;5.424;2023-03-03T17:46:47;102634.84;;;7.04;65.98
71976;BME280;68326;52.124;5.424;2023-03-03T17:57:33;102640.09;;;6.92;66.56
71976;BME280;68326;52.124;5.424;2023-03-03T18:06:12;102643.56;;;6.89;66.64
71976;BME280;68326;52.124;5.424;2023-03-03T18:17:33;102645.34;;;6.84;68.54
71976;BME280;68326;52.124;5.424;2023-03-03T18:20:11;102648.81;;;6.76;67.59
71976;BME280;68326;52.124;5.424;2023-03-03T18:22:45;102654.84;;;6.73;67.33
71976;BME280;68326;52.124;5.424;2023-03-03T18:25:20;102657.44;;;6.71;68.33
71976;BME280;68326;52.124;5.424;2023-03-03T18:30:28;102659.22;;;6.66;67.72
71976;BME280;68326;52.124;5.424;2023-03-03T18:33:02;102663.53;;;6.66;68.09
71976;BME280;68326;52.124;5.424;2023-03-03T18:38:35;102675.59;;;6.68;67.53
71976;BME280;68326;52.124;5.424;2023-03-03T18:41:08;102667.84;;;6.61;67.96
71976;BME280;68326;52.124;5.424;2023-03-03T18:49:10;102672.16;;;6.60;68.01
71976;BME280;68326;52.124;5.424;2023-03-03T19:04:43;102682.50;;;6.68;67.89
71976;BME280;68326;52.124;5.424;2023-03-03T19:07:25;102679.03;;;6.70;68.71